createdAt,value
2019-02-05T00:01:01.662Z,2.90
2019-02-05T00:03:07.461Z,2.90
2019-02-05T00:05:11.430Z,2.80
2019-02-05T00:07:15.294Z,2.80
2019-02-05T00:09:19.209Z,2.80
2019-02-05T00:11:23.145Z,2.90
2019-02-05T00:13:27.039Z,2.80
2019-02-05T00:15:30.960Z,2.80
2019-02-05T00:17:34.826Z,2.90
2019-02-05T00:19:38.753Z,3.00
2019-02-05T00:21:42.631Z,2.80
2019-02-05T00:23:46.542Z,2.90
2019-02-05T00:25:50.430Z,2.90
2019-02-05T00:27:54.301Z,2.90
2019-02-05T00:29:58.342Z,2.90
2019-02-05T00:32:02.189Z,2.90
2019-02-05T00:34:06.050Z,2.90
2019-02-05T00:36:09.934Z,2.90
2019-02-05T00:38:13.817Z,2.90
2019-02-05T00:40:17.856Z,3.00
2019-02-05T00:42:21.753Z,3.00
2019-02-05T00:44:25.616Z,3.10
2019-02-05T00:46:29.482Z,3.10
2019-02-05T00:48:33.499Z,3.00
2019-02-05T00:50:37.338Z,3.00
2019-02-05T00:52:41.187Z,3.00
2019-02-05T00:54:45.092Z,3.10
2019-02-05T00:56:48.981Z,3.10
2019-02-05T00:58:52.878Z,3.00
2019-02-05T01:00:56.742Z,3.00
2019-02-05T01:03:00.662Z,3.10
2019-02-05T01:05:06.163Z,3.10
2019-02-05T01:07:10.033Z,3.00
2019-02-05T01:09:13.918Z,3.10
2019-02-05T01:11:18.171Z,3.10
2019-02-05T01:13:22.046Z,3.10
2019-02-05T01:15:26.770Z,3.10
2019-02-05T01:17:30.695Z,3.10
2019-02-05T01:19:34.588Z,3.10
2019-02-05T01:21:39.276Z,3.10
2019-02-05T01:23:43.168Z,3.10
2019-02-05T01:25:47.061Z,3.20
2019-02-05T01:27:51.418Z,3.20
2019-02-05T01:29:55.669Z,3.10
2019-02-05T01:32:00.092Z,3.10
2019-02-05T01:34:03.926Z,3.10
2019-02-05T01:36:07.832Z,3.10
2019-02-05T01:38:11.700Z,3.10
2019-02-05T01:40:18.317Z,3.10
2019-02-05T01:42:22.258Z,3.10
2019-02-05T01:44:26.124Z,3.10
2019-02-05T01:46:30.011Z,3.20
2019-02-05T01:48:33.902Z,3.20
2019-02-05T01:50:37.781Z,3.20
2019-02-05T01:52:41.870Z,3.30
2019-02-05T01:54:45.730Z,3.30
2019-02-05T01:56:49.620Z,3.30
2019-02-05T01:58:53.493Z,3.20
2019-02-05T02:00:57.417Z,3.20
2019-02-05T02:03:02.068Z,3.20
2019-02-05T02:05:07.000Z,3.30
2019-02-05T02:07:10.904Z,3.30
2019-02-05T02:09:14.773Z,3.30
2019-02-05T02:11:18.618Z,3.30
2019-02-05T02:13:23.210Z,3.30
2019-02-05T02:15:27.089Z,3.30
2019-02-05T02:17:30.973Z,3.40
2019-02-05T02:19:35.458Z,3.40
2019-02-05T02:21:39.357Z,3.40
2019-02-05T02:23:43.522Z,3.30
2019-02-05T02:25:47.425Z,3.30
2019-02-05T02:27:51.735Z,3.30
2019-02-05T02:29:55.643Z,3.30
2019-02-05T02:31:59.566Z,3.30
2019-02-05T02:34:04.062Z,3.30
2019-02-05T02:36:07.995Z,3.30
2019-02-05T02:38:11.888Z,3.30
2019-02-05T02:40:15.793Z,3.30
2019-02-05T02:42:19.689Z,3.30
2019-02-05T02:44:23.896Z,3.30
2019-02-05T02:46:34.981Z,3.30
2019-02-05T02:48:39.316Z,3.30
2019-02-05T02:50:43.174Z,3.30
2019-02-05T02:52:47.105Z,3.30
2019-02-05T02:54:51.093Z,3.30
2019-02-05T02:57:04.579Z,3.30
2019-02-05T02:59:02.146Z,3.30
2019-02-05T03:01:06.944Z,3.40
2019-02-05T03:03:10.830Z,3.40
2019-02-05T03:05:16.935Z,3.40
2019-02-05T03:07:21.237Z,3.30
2019-02-05T03:09:25.131Z,3.30
2019-02-05T03:11:29.039Z,3.40
2019-02-05T03:13:32.954Z,3.40
2019-02-05T03:15:36.801Z,3.40
2019-02-05T03:17:40.664Z,3.40
2019-02-05T03:19:44.560Z,3.40
2019-02-05T03:21:48.438Z,3.40
2019-02-05T03:23:52.381Z,3.40
2019-02-05T03:25:56.671Z,3.40
2019-02-05T03:28:00.534Z,3.40
2019-02-05T03:30:10.123Z,3.30
2019-02-05T03:32:13.991Z,3.40
2019-02-05T03:34:17.998Z,3.40
2019-02-05T03:36:22.482Z,3.40
2019-02-05T03:38:26.575Z,3.40
2019-02-05T03:40:34.797Z,3.40
2019-02-05T03:42:38.832Z,3.40
2019-02-05T03:44:42.930Z,3.40
2019-02-05T03:46:47.465Z,3.40
2019-02-05T03:48:51.640Z,3.40
2019-02-05T03:51:16.802Z,3.40
2019-02-05T03:53:43.232Z,3.40
2019-02-05T03:56:12.403Z,3.40
2019-02-05T03:58:25.448Z,3.40
2019-02-05T04:00:41.057Z,3.40
2019-02-05T04:02:57.010Z,3.40
2019-02-05T04:05:15.844Z,3.50
2019-02-05T04:07:34.451Z,3.50
2019-02-05T04:09:50.048Z,3.50
2019-02-05T04:12:12.202Z,3.50
2019-02-05T04:14:24.860Z,3.50
2019-02-05T04:17:00.330Z,3.50
2019-02-05T04:19:28.397Z,3.50
2019-02-05T04:22:00.855Z,3.50
2019-02-05T04:24:10.702Z,3.50
2019-02-05T04:26:20.198Z,3.50
2019-02-05T04:28:41.930Z,3.60
2019-02-05T04:30:51.598Z,3.60
2019-02-05T04:33:04.618Z,3.60
2019-02-05T04:35:31.430Z,3.70
2019-02-05T04:37:58.692Z,3.60
2019-02-05T04:40:37.376Z,3.60
2019-02-05T04:42:49.816Z,3.60
2019-02-05T04:45:14.507Z,3.60
2019-02-05T04:47:30.034Z,3.70
2019-02-05T04:49:51.917Z,3.70
2019-02-05T04:52:04.639Z,3.70
2019-02-05T04:54:46.442Z,3.60
2019-02-05T04:57:20.566Z,3.60
2019-02-05T04:59:36.092Z,3.50
2019-02-05T05:01:51.944Z,3.50
2019-02-05T05:04:13.871Z,3.60
2019-02-05T05:06:25.917Z,3.60
2019-02-05T05:08:58.836Z,3.60
2019-02-05T05:11:02.724Z,3.60
2019-02-05T05:13:07.001Z,3.60
2019-02-05T05:15:11.381Z,3.60
2019-02-05T05:17:15.255Z,3.60
2019-02-05T05:19:19.229Z,3.60
2019-02-05T05:21:23.130Z,3.60
2019-02-05T05:23:27.434Z,3.60
2019-02-05T05:25:31.420Z,3.60
2019-02-05T05:27:35.407Z,3.60
2019-02-05T05:29:39.262Z,3.60
2019-02-05T05:31:43.175Z,3.60
2019-02-05T05:33:47.038Z,3.60
2019-02-05T05:35:51.067Z,3.60
2019-02-05T05:37:54.929Z,3.60
2019-02-05T05:39:58.768Z,3.60
2019-02-05T05:42:02.933Z,3.60
2019-02-05T05:44:09.463Z,3.60
2019-02-05T05:46:12.335Z,3.60
2019-02-05T05:48:16.369Z,3.70
2019-02-05T05:50:21.298Z,3.70
2019-02-05T05:52:25.872Z,3.70
2019-02-05T05:54:29.794Z,3.70
2019-02-05T05:56:33.688Z,3.70
2019-02-05T05:58:37.600Z,3.70
2019-02-05T06:00:41.555Z,3.70
2019-02-05T06:02:45.991Z,3.70
2019-02-05T06:04:49.843Z,3.70
2019-02-05T06:06:53.995Z,3.70
2019-02-05T06:08:58.116Z,3.70
2019-02-05T06:11:01.975Z,3.70
2019-02-05T06:13:06.227Z,3.70
2019-02-05T06:15:12.413Z,3.70
2019-02-05T06:17:16.221Z,3.70
2019-02-05T06:19:20.129Z,3.70
2019-02-05T06:21:24.128Z,3.70
2019-02-05T06:23:28.016Z,3.70
2019-02-05T06:25:31.902Z,3.70
2019-02-05T06:27:35.815Z,3.70
2019-02-05T06:29:39.865Z,3.70
2019-02-05T06:31:43.973Z,3.70
2019-02-05T06:33:47.821Z,3.70
2019-02-05T06:35:51.749Z,3.70
2019-02-05T06:37:55.663Z,3.80
2019-02-05T06:39:59.543Z,3.80
2019-02-05T06:42:03.776Z,3.70
2019-02-05T06:44:07.722Z,3.80
2019-02-05T06:46:11.805Z,3.70
2019-02-05T06:48:15.674Z,3.70
2019-02-05T06:50:19.543Z,3.70
2019-02-05T06:52:23.485Z,3.70
2019-02-05T06:54:27.418Z,3.70
2019-02-05T06:56:31.258Z,3.70
2019-02-05T06:58:45.744Z,3.70
2019-02-05T07:00:40.678Z,3.80
2019-02-05T07:02:44.562Z,3.70
2019-02-05T07:04:48.440Z,3.80
2019-02-05T07:06:52.429Z,3.80
2019-02-05T07:08:56.331Z,3.80
2019-02-05T07:11:00.257Z,3.80
2019-02-05T07:13:04.171Z,3.80
2019-02-05T07:15:10.280Z,3.80
2019-02-05T07:17:14.188Z,3.80
2019-02-05T07:19:18.067Z,3.80
2019-02-05T07:21:22.441Z,3.80
2019-02-05T07:23:26.324Z,3.80
2019-02-05T07:25:30.376Z,3.80
2019-02-05T07:27:34.280Z,3.80
2019-02-05T07:29:38.449Z,3.80
2019-02-05T07:31:42.902Z,3.80
2019-02-05T07:33:46.772Z,3.80
2019-02-05T07:35:50.755Z,3.80
2019-02-05T07:37:54.641Z,3.80
2019-02-05T07:39:58.532Z,3.80
2019-02-05T07:42:02.535Z,3.80
2019-02-05T07:44:06.529Z,3.80
2019-02-05T07:46:10.417Z,3.80
2019-02-05T07:48:14.346Z,3.80
2019-02-05T07:50:20.649Z,3.80
2019-02-05T07:52:24.607Z,3.80
2019-02-05T07:54:28.627Z,3.90
2019-02-05T07:56:32.536Z,3.90
2019-02-05T07:58:36.465Z,3.90
2019-02-05T08:00:40.452Z,3.90
2019-02-05T08:02:44.403Z,3.90
2019-02-05T08:04:48.297Z,3.90
2019-02-05T08:06:52.226Z,3.90
2019-02-05T08:08:56.553Z,3.90
2019-02-05T08:11:00.459Z,3.90
2019-02-05T08:13:04.805Z,3.90
2019-02-05T08:15:11.763Z,3.90
2019-02-05T08:17:15.662Z,3.90
2019-02-05T08:19:19.569Z,4.00
2019-02-05T08:21:23.646Z,3.90
2019-02-05T08:23:27.606Z,4.00
2019-02-05T08:25:31.514Z,4.00
2019-02-05T08:27:37.245Z,3.90
2019-02-05T08:29:41.277Z,3.90
2019-02-05T08:31:45.158Z,4.00
2019-02-05T08:33:49.072Z,4.00
2019-02-05T08:35:53.030Z,4.00
2019-02-05T08:37:56.914Z,4.00
2019-02-05T08:40:00.804Z,4.00
2019-02-05T08:42:04.730Z,4.00
2019-02-05T08:44:08.639Z,4.00
2019-02-05T08:46:12.708Z,4.00
2019-02-05T08:48:16.586Z,4.10
2019-02-05T08:50:27.422Z,4.10
2019-02-05T08:52:31.680Z,4.10
2019-02-05T08:54:35.557Z,4.10
2019-02-05T08:56:39.471Z,4.20
2019-02-05T08:58:43.396Z,4.10
2019-02-05T09:00:47.883Z,4.10
2019-02-05T09:02:52.013Z,4.10
2019-02-05T09:04:55.893Z,4.20
2019-02-05T09:07:00.087Z,4.10
2019-02-05T09:09:05.517Z,4.20
2019-02-05T09:11:09.419Z,4.20
2019-02-05T09:13:13.305Z,4.20
2019-02-05T09:15:28.879Z,4.20
2019-02-05T09:17:24.405Z,4.30
2019-02-05T09:19:28.514Z,4.30
2019-02-05T09:21:32.401Z,4.30
2019-02-05T09:23:36.321Z,4.30
2019-02-05T09:25:40.376Z,4.30
2019-02-05T09:27:44.386Z,4.30
2019-02-05T09:29:48.298Z,4.30
2019-02-05T09:31:52.224Z,4.30
2019-02-05T09:33:56.136Z,4.40
2019-02-05T09:36:00.100Z,4.40
2019-02-05T09:38:03.987Z,4.40
2019-02-05T09:40:10.815Z,4.40
2019-02-05T09:42:14.751Z,4.50
2019-02-05T09:44:18.676Z,4.50
2019-02-05T09:46:22.774Z,4.50
2019-02-05T09:48:26.673Z,4.50
2019-02-05T09:50:36.776Z,4.60
2019-02-05T09:52:36.421Z,4.60
2019-02-05T09:54:40.320Z,4.60
2019-02-05T09:56:44.623Z,4.60
2019-02-05T09:58:48.559Z,4.60
2019-02-05T10:00:52.452Z,4.70
2019-02-05T10:02:56.414Z,4.70
2019-02-05T10:05:00.365Z,4.80
2019-02-05T10:07:04.358Z,4.80
2019-02-05T10:09:08.854Z,4.80
2019-02-05T10:11:12.766Z,4.80
2019-02-05T10:13:16.724Z,4.90
2019-02-05T10:15:23.703Z,5.00
2019-02-05T10:17:27.635Z,5.00
2019-02-05T10:19:31.547Z,5.10
2019-02-05T10:21:35.451Z,5.00
2019-02-05T10:23:39.380Z,5.00
2019-02-05T10:25:43.706Z,5.10
2019-02-05T10:27:47.614Z,5.00
2019-02-05T10:29:59.267Z,5.00
2019-02-05T10:31:57.186Z,5.00
2019-02-05T10:34:01.087Z,5.00
2019-02-05T10:36:05.612Z,5.10
2019-02-05T10:38:09.607Z,5.10
2019-02-05T10:40:14.539Z,5.10
2019-02-05T10:42:18.423Z,5.10
2019-02-05T10:44:22.364Z,5.20
2019-02-05T10:46:26.267Z,5.20
2019-02-05T10:48:30.212Z,5.20
2019-02-05T10:50:34.128Z,5.40
2019-02-05T10:52:38.037Z,5.40
2019-02-05T10:54:41.922Z,5.50
2019-02-05T10:56:45.869Z,5.40
2019-02-05T10:58:49.851Z,5.40
2019-02-05T11:00:53.808Z,5.30
2019-02-05T11:03:00.002Z,5.30
2019-02-05T11:05:06.369Z,5.30
2019-02-05T11:07:10.295Z,5.40
2019-02-05T11:09:14.196Z,5.20
2019-02-05T11:11:18.071Z,5.30
2019-02-05T11:13:22.033Z,5.30
2019-02-05T11:15:28.898Z,5.30
2019-02-05T11:17:32.836Z,5.30
2019-02-05T11:19:36.742Z,5.30
2019-02-05T11:21:40.719Z,5.30
2019-02-05T11:23:44.675Z,5.20
2019-02-05T11:25:48.958Z,5.30
2019-02-05T11:27:53.094Z,5.20
2019-02-05T11:29:57.002Z,5.30
2019-02-05T11:32:00.877Z,5.30
2019-02-05T11:34:05.732Z,5.40
2019-02-05T11:36:09.634Z,5.30
2019-02-05T11:38:13.546Z,5.40
2019-02-05T11:40:20.325Z,5.50
2019-02-05T11:42:24.197Z,5.50
2019-02-05T11:44:28.149Z,5.50
2019-02-05T11:46:32.085Z,5.50
2019-02-05T11:48:36.023Z,5.50
2019-02-05T11:50:39.957Z,5.50
2019-02-05T11:52:43.969Z,5.50
2019-02-05T11:54:48.302Z,5.40
2019-02-05T11:56:52.193Z,5.40
2019-02-05T11:58:56.133Z,5.40
2019-02-05T12:01:01.760Z,5.40
2019-02-05T12:03:06.158Z,5.40
2019-02-05T12:05:10.495Z,5.30
2019-02-05T12:07:14.554Z,5.30
2019-02-05T12:09:20.346Z,5.30
2019-02-05T12:11:24.244Z,5.30
2019-02-05T12:13:28.470Z,5.30
2019-02-05T12:15:32.361Z,5.30
2019-02-05T12:17:36.378Z,5.30
2019-02-05T12:19:40.345Z,5.40
2019-02-05T12:21:44.422Z,5.40
2019-02-05T12:23:48.955Z,5.40
2019-02-05T12:25:52.879Z,5.50
2019-02-05T12:27:56.819Z,5.50
2019-02-05T12:30:00.816Z,5.50
2019-02-05T12:32:04.979Z,5.50
2019-02-05T12:34:09.313Z,5.60
2019-02-05T12:36:13.275Z,5.60
2019-02-05T12:38:17.223Z,5.50
2019-02-05T12:40:21.140Z,5.50
2019-02-05T12:42:25.102Z,5.50
2019-02-05T12:44:29.053Z,5.50
2019-02-05T12:46:32.994Z,5.60
2019-02-05T12:48:36.929Z,5.60
2019-02-05T12:50:43.078Z,5.70
2019-02-05T12:52:47.022Z,5.70
2019-02-05T12:54:50.988Z,5.70
2019-02-05T12:56:55.050Z,5.70
2019-02-05T12:58:59.001Z,5.70
2019-02-05T13:01:03.234Z,5.70
2019-02-05T13:03:08.270Z,5.80
2019-02-05T13:05:12.206Z,5.80
2019-02-05T13:07:16.170Z,5.80
2019-02-05T13:09:20.143Z,5.80
2019-02-05T13:11:24.221Z,5.80
2019-02-05T13:13:28.162Z,5.80
2019-02-05T13:15:32.106Z,5.80
2019-02-05T13:17:36.074Z,5.80
2019-02-05T13:19:40.094Z,5.80
2019-02-05T13:21:44.108Z,5.90
2019-02-05T13:23:48.017Z,5.90
2019-02-05T13:25:51.952Z,6.10
2019-02-05T13:27:55.983Z,6.00
2019-02-05T13:30:04.151Z,6.00
2019-02-05T13:32:08.348Z,6.00
2019-02-05T13:34:12.407Z,6.10
2019-02-05T13:36:16.827Z,6.00
2019-02-05T13:38:20.783Z,6.00
2019-02-05T13:40:28.585Z,6.10
2019-02-05T13:42:32.587Z,6.30
2019-02-05T13:44:36.699Z,6.40
2019-02-05T13:46:40.941Z,6.40
2019-02-05T13:48:44.983Z,6.30
2019-02-05T13:50:48.957Z,6.20
2019-02-05T13:52:53.081Z,6.30
2019-02-05T13:54:57.019Z,6.20
2019-02-05T13:57:01.247Z,6.30
2019-02-05T13:59:05.242Z,6.20
2019-02-05T14:01:19.690Z,6.00
2019-02-05T14:03:14.849Z,6.00
2019-02-05T14:05:18.812Z,6.10
2019-02-05T14:07:23.041Z,6.00
2019-02-05T14:09:27.126Z,6.00
2019-02-05T14:11:31.062Z,6.00
2019-02-05T14:13:35.600Z,5.90
2019-02-05T14:15:45.587Z,5.90
2019-02-05T14:17:49.533Z,5.90
2019-02-05T14:19:53.618Z,5.80
2019-02-05T14:21:57.542Z,5.90
2019-02-05T14:24:01.485Z,5.90
2019-02-05T14:26:05.571Z,6.00
2019-02-05T14:28:09.929Z,5.90
2019-02-05T14:30:35.189Z,5.90
2019-02-05T14:32:39.407Z,5.80
2019-02-05T14:34:43.332Z,5.80
2019-02-05T14:36:47.269Z,5.80
2019-02-05T14:38:51.233Z,5.80
2019-02-05T14:40:57.323Z,5.80
2019-02-05T14:43:01.598Z,5.90
2019-02-05T14:45:09.419Z,5.90
2019-02-05T14:47:13.438Z,5.90
2019-02-05T14:49:24.470Z,6.00
2019-02-05T14:51:29.870Z,6.00
2019-02-05T14:53:36.425Z,6.00
2019-02-05T14:55:41.355Z,6.00
2019-02-05T14:57:46.281Z,6.10
2019-02-05T14:59:50.214Z,6.00
2019-02-05T15:01:55.190Z,6.10
2019-02-05T15:03:59.752Z,6.40
2019-02-05T15:06:07.493Z,6.30
2019-02-05T15:08:13.486Z,6.20
2019-02-05T15:10:20.063Z,6.10
2019-02-05T15:12:24.910Z,6.10
2019-02-05T15:14:29.161Z,6.60
2019-02-05T15:16:33.914Z,6.80
2019-02-05T15:18:38.581Z,6.70
2019-02-05T15:20:45.818Z,6.80
2019-02-05T15:22:51.024Z,7.00
2019-02-05T15:24:55.678Z,7.10
2019-02-05T15:27:00.115Z,7.30
2019-02-05T15:29:04.108Z,7.30
2019-02-05T15:31:09.519Z,7.20
2019-02-05T15:33:32.837Z,7.40
2019-02-05T15:35:39.935Z,7.20
2019-02-05T15:37:44.786Z,6.90
2019-02-05T15:39:49.626Z,6.70
2019-02-05T15:41:53.630Z,6.50
2019-02-05T15:44:00.768Z,6.30
2019-02-05T15:46:06.154Z,6.30
2019-02-05T15:48:11.599Z,6.20
2019-02-05T15:50:16.884Z,6.10
2019-02-05T15:52:21.748Z,6.00
2019-02-05T15:54:26.233Z,5.90
2019-02-05T15:56:30.287Z,5.80
2019-02-05T15:58:34.744Z,5.80
2019-02-05T16:00:39.594Z,5.70
2019-02-05T16:02:44.023Z,5.70
2019-02-05T16:04:48.648Z,5.70
2019-02-05T16:06:52.812Z,5.60
2019-02-05T16:08:57.131Z,5.60
2019-02-05T16:11:01.745Z,5.60
2019-02-05T16:13:05.881Z,5.60
2019-02-05T16:15:12.028Z,5.50
2019-02-05T16:17:15.996Z,5.50
2019-02-05T16:19:20.002Z,5.50
2019-02-05T16:21:23.970Z,5.50
2019-02-05T16:23:27.954Z,5.40
2019-02-05T16:25:32.021Z,5.50
2019-02-05T16:27:35.942Z,5.50
2019-02-05T16:29:39.877Z,5.40
2019-02-05T16:31:43.841Z,5.50
2019-02-05T16:33:47.859Z,5.40
2019-02-05T16:35:51.822Z,5.40
2019-02-05T16:37:56.290Z,5.50
2019-02-05T16:40:00.222Z,5.40
2019-02-05T16:42:04.691Z,5.50
2019-02-05T16:44:08.676Z,5.50
2019-02-05T16:46:12.594Z,5.40
2019-02-05T16:48:16.566Z,5.50
2019-02-05T16:50:23.617Z,5.50
2019-02-05T16:52:27.587Z,5.60
2019-02-05T16:54:31.569Z,5.60
2019-02-05T16:56:35.527Z,5.50
2019-02-05T16:58:39.480Z,5.40
2019-02-05T17:00:43.699Z,5.40
2019-02-05T17:02:47.682Z,5.40
2019-02-05T17:04:51.645Z,5.40
2019-02-05T17:06:55.658Z,5.40
2019-02-05T17:08:59.586Z,5.40
2019-02-05T17:11:03.533Z,5.40
2019-02-05T17:13:07.739Z,5.40
2019-02-05T17:15:13.993Z,5.40
2019-02-05T17:17:20.699Z,5.40
2019-02-05T17:19:23.700Z,5.40
2019-02-05T17:21:27.633Z,5.40
2019-02-05T17:23:31.555Z,5.40
2019-02-05T17:25:36.149Z,5.50
2019-02-05T17:27:40.462Z,5.50
2019-02-05T17:29:44.439Z,5.50
2019-02-05T17:31:48.397Z,5.40
2019-02-05T17:33:52.401Z,5.40
2019-02-05T17:35:56.346Z,5.30
2019-02-05T17:38:00.272Z,5.30
2019-02-05T17:40:05.643Z,5.30
2019-02-05T17:42:09.547Z,5.50
2019-02-05T17:44:13.475Z,5.50
2019-02-05T17:46:17.442Z,5.60
2019-02-05T17:48:21.394Z,5.50
2019-02-05T17:50:25.671Z,5.50
2019-02-05T17:52:29.633Z,5.50
2019-02-05T17:54:33.570Z,5.50
2019-02-05T17:56:37.557Z,5.50
2019-02-05T17:58:41.477Z,5.50
2019-02-05T18:00:50.006Z,5.50
2019-02-05T18:02:54.371Z,5.60
2019-02-05T18:04:58.223Z,5.70
2019-02-05T18:07:02.309Z,5.70
2019-02-05T18:09:07.788Z,5.60
2019-02-05T18:11:11.720Z,5.60
2019-02-05T18:13:16.176Z,5.60
2019-02-05T18:15:29.047Z,5.70
2019-02-05T18:17:32.957Z,5.70
2019-02-05T18:19:36.914Z,5.70
2019-02-05T18:21:40.903Z,5.60
2019-02-05T18:23:44.793Z,5.70
2019-02-05T18:25:48.673Z,5.60
2019-02-05T18:27:52.646Z,5.50
2019-02-05T18:29:56.622Z,5.50
2019-02-05T18:32:00.492Z,5.50
2019-02-05T18:34:04.437Z,5.70
2019-02-05T18:36:08.319Z,5.70
2019-02-05T18:38:15.015Z,5.70
2019-02-05T18:40:23.865Z,5.60
2019-02-05T18:42:27.778Z,5.50
2019-02-05T18:44:31.666Z,5.50
2019-02-05T18:46:35.898Z,5.40
2019-02-05T18:48:39.801Z,5.50
2019-02-05T18:50:44.248Z,5.50
2019-02-05T18:52:48.191Z,5.40
2019-02-05T18:54:52.061Z,5.30
2019-02-05T18:56:56.237Z,5.40
2019-02-05T18:59:00.178Z,5.50
2019-02-05T19:01:05.377Z,5.50
2019-02-05T19:03:15.614Z,5.50
2019-02-05T19:05:15.423Z,5.50
2019-02-05T19:07:19.698Z,5.50
2019-02-05T19:09:23.621Z,5.50
2019-02-05T19:11:27.487Z,5.50
2019-02-05T19:13:31.370Z,5.50
2019-02-05T19:15:38.146Z,5.50
2019-02-05T19:17:42.216Z,5.50
2019-02-05T19:19:46.125Z,5.50
2019-02-05T19:21:50.080Z,5.50
2019-02-05T19:23:55.496Z,5.40
2019-02-05T19:26:04.150Z,5.50
2019-02-05T19:28:08.483Z,5.60
2019-02-05T19:30:19.058Z,5.50
2019-02-05T19:32:23.729Z,5.60
2019-02-05T19:34:27.583Z,5.50
2019-02-05T19:36:31.447Z,5.50
2019-02-05T19:38:35.333Z,5.70
2019-02-05T19:40:39.284Z,5.60
2019-02-05T19:42:43.400Z,5.50
2019-02-05T19:44:48.818Z,5.50
2019-02-05T19:46:54.258Z,5.50
2019-02-05T19:49:00.194Z,5.50
2019-02-05T19:51:04.739Z,5.30
2019-02-05T19:53:08.578Z,5.50
2019-02-05T19:55:12.592Z,5.40
2019-02-05T19:57:16.878Z,5.50
2019-02-05T19:59:20.833Z,5.50
2019-02-05T20:01:24.739Z,5.60
2019-02-05T20:03:38.414Z,5.60
2019-02-05T20:05:34.152Z,5.50
2019-02-05T20:07:38.040Z,5.60
2019-02-05T20:09:42.461Z,5.50
2019-02-05T20:11:46.430Z,5.50
2019-02-05T20:13:50.290Z,5.40
2019-02-05T20:15:54.196Z,5.50
2019-02-05T20:17:58.082Z,5.40
2019-02-05T20:20:01.930Z,5.50
2019-02-05T20:22:06.098Z,5.30
2019-02-05T20:24:09.977Z,5.30
2019-02-05T20:26:13.826Z,5.40
2019-02-05T20:28:17.836Z,5.40
2019-02-05T20:30:23.105Z,5.40
2019-02-05T20:32:30.841Z,5.40
2019-02-05T20:34:35.758Z,5.10
2019-02-05T20:36:39.680Z,5.00
2019-02-05T20:38:43.598Z,5.00
2019-02-05T20:40:47.462Z,5.10
2019-02-05T20:42:51.413Z,5.10
2019-02-05T20:44:55.393Z,5.00
2019-02-05T20:46:59.254Z,4.90
2019-02-05T20:49:04.043Z,5.10
2019-02-05T20:51:07.950Z,5.10
2019-02-05T20:53:14.141Z,5.20
2019-02-05T20:55:22.501Z,5.20
2019-02-05T20:57:26.420Z,5.00
2019-02-05T20:59:31.461Z,4.80
2019-02-05T21:01:35.346Z,4.90
2019-02-05T21:03:39.213Z,4.90
2019-02-05T21:05:43.113Z,4.90
2019-02-05T21:07:47.120Z,5.00
2019-02-05T21:09:51.403Z,5.00
2019-02-05T21:11:55.262Z,5.10
2019-02-05T21:13:59.220Z,4.90
2019-02-05T21:16:03.096Z,5.00
2019-02-05T21:18:08.623Z,5.10
2019-02-05T21:20:28.932Z,4.90
2019-02-05T21:22:23.706Z,5.00
2019-02-05T21:24:27.597Z,5.10
2019-02-05T21:26:31.463Z,5.10
2019-02-05T21:28:36.848Z,4.80
2019-02-05T21:30:41.510Z,4.80
2019-02-05T21:32:47.978Z,4.80
2019-02-05T21:34:52.275Z,4.90
2019-02-05T21:36:56.151Z,5.00
2019-02-05T21:39:00.006Z,4.90
2019-02-05T21:41:05.017Z,4.90
2019-02-05T21:43:08.878Z,4.90
2019-02-05T21:45:15.563Z,4.90
2019-02-05T21:47:19.485Z,5.00
2019-02-05T21:49:27.775Z,5.20
2019-02-05T21:51:40.439Z,5.30
2019-02-05T21:53:42.803Z,5.20
2019-02-05T21:55:48.101Z,5.30
2019-02-05T21:57:57.362Z,5.20
2019-02-05T22:00:01.224Z,5.20
2019-02-05T22:02:06.281Z,5.10
2019-02-05T22:04:10.604Z,5.00
2019-02-05T22:06:14.531Z,5.10
2019-02-05T22:08:18.550Z,5.10
2019-02-05T22:10:22.403Z,5.20
2019-02-05T22:12:26.310Z,5.20
2019-02-05T22:14:30.213Z,5.30
2019-02-05T22:16:36.514Z,5.40
2019-02-05T22:18:40.817Z,5.30
2019-02-05T22:20:45.331Z,5.30
2019-02-05T22:22:50.934Z,5.30
2019-02-05T22:24:57.568Z,5.30
2019-02-05T22:27:03.619Z,5.30
2019-02-05T22:29:07.519Z,5.20
2019-02-05T22:31:11.406Z,5.30
2019-02-05T22:33:18.265Z,5.40
2019-02-05T22:35:24.310Z,5.40
2019-02-05T22:37:28.558Z,5.20
2019-02-05T22:39:32.488Z,5.40
2019-02-05T22:41:36.477Z,5.40
2019-02-05T22:43:41.421Z,5.40
2019-02-05T22:45:45.425Z,5.30
2019-02-05T22:47:49.946Z,5.40
2019-02-05T22:49:54.361Z,5.40
2019-02-05T22:51:58.202Z,5.40
2019-02-05T22:54:02.098Z,5.50
2019-02-05T22:56:05.964Z,5.40
2019-02-05T22:58:10.114Z,5.20
2019-02-05T23:00:43.040Z,5.30
2019-02-05T23:02:47.435Z,5.30
2019-02-05T23:04:54.262Z,5.40
2019-02-05T23:07:01.326Z,5.50
2019-02-05T23:09:23.426Z,5.30
2019-02-05T23:11:32.995Z,5.30
2019-02-05T23:13:36.885Z,5.20
2019-02-05T23:15:40.789Z,5.30
2019-02-05T23:17:45.338Z,5.40
2019-02-05T23:19:49.281Z,5.40
2019-02-05T23:21:53.225Z,5.40
2019-02-05T23:24:00.916Z,5.30
2019-02-05T23:26:05.526Z,5.20
2019-02-05T23:28:09.937Z,5.30
2019-02-05T23:30:17.211Z,5.20
2019-02-05T23:32:21.104Z,5.20
2019-02-05T23:34:25.055Z,5.20
2019-02-05T23:36:29.003Z,5.20
2019-02-05T23:38:33.190Z,5.20
2019-02-05T23:40:37.092Z,5.20
2019-02-05T23:42:40.942Z,5.20
2019-02-05T23:44:44.838Z,5.30
2019-02-05T23:46:49.055Z,5.20
2019-02-05T23:48:54.941Z,5.20
2019-02-05T23:50:58.865Z,5.10
2019-02-05T23:53:02.843Z,5.20
2019-02-05T23:55:09.795Z,5.10
2019-02-05T23:57:13.726Z,5.30
2019-02-05T23:59:17.586Z,5.20
